createdAt,value
2022-07-28T00:00:30.059Z,25.46
2022-07-28T00:03:42.588Z,25.42
2022-07-28T00:06:44.787Z,25.37
2022-07-28T00:09:47.449Z,25.39
2022-07-28T00:12:49.630Z,25.39
2022-07-28T00:15:52.366Z,25.36
2022-07-28T00:18:54.565Z,25.38
2022-07-28T00:21:57.361Z,25.37
2022-07-28T00:24:59.561Z,25.43
2022-07-28T00:28:02.427Z,25.35
2022-07-28T00:31:07.198Z,25.28
2022-07-28T00:34:13.113Z,25.32
2022-07-28T00:37:15.507Z,25.19
2022-07-28T00:40:18.257Z,25.15
2022-07-28T00:43:20.599Z,25.11
2022-07-28T00:46:24.215Z,25.15
2022-07-28T00:49:26.699Z,25.18
2022-07-28T00:52:29.917Z,25.30
2022-07-28T00:55:32.309Z,25.23
2022-07-28T00:58:54.999Z,25.17
2022-07-28T01:01:57.562Z,25.12
2022-07-28T01:05:00.410Z,24.99
2022-07-28T01:08:06.086Z,25.05
2022-07-28T01:11:14.715Z,25.04
2022-07-28T01:14:23.069Z,24.95
2022-07-28T01:17:48.126Z,24.98
2022-07-28T01:20:53.607Z,24.85
2022-07-28T01:23:56.480Z,24.85
2022-07-28T01:27:06.059Z,24.85
2022-07-28T01:30:27.947Z,24.89
2022-07-28T01:33:46.164Z,24.76
2022-07-28T01:37:01.057Z,24.60
2022-07-28T01:40:05.208Z,24.61
2022-07-28T01:43:13.466Z,24.66
2022-07-28T01:46:16.532Z,24.56
2022-07-28T01:49:21.307Z,24.48
2022-07-28T01:52:23.931Z,24.48
2022-07-28T01:55:27.902Z,24.52
2022-07-28T01:58:30.625Z,24.54
2022-07-28T02:01:36.635Z,24.51
2022-07-28T02:04:40.569Z,24.44
2022-07-28T02:07:44.720Z,24.44
2022-07-28T02:11:09.838Z,24.45
2022-07-28T02:14:23.265Z,24.49
2022-07-28T02:17:28.011Z,24.44
2022-07-28T02:20:30.748Z,24.43
2022-07-28T02:23:34.239Z,24.51
2022-07-28T02:26:38.036Z,24.48
2022-07-28T02:29:51.046Z,24.46
2022-07-28T02:32:55.554Z,24.44
2022-07-28T02:36:16.147Z,24.40
2022-07-28T02:39:23.162Z,24.42
2022-07-28T02:42:28.379Z,24.40
2022-07-28T02:45:31.680Z,24.46
2022-07-28T02:48:36.990Z,24.48
2022-07-28T02:51:40.682Z,24.43
2022-07-28T02:54:44.048Z,24.34
2022-07-28T02:57:47.788Z,24.35
2022-07-28T03:00:51.055Z,24.41
2022-07-28T03:03:55.560Z,24.38
2022-07-28T03:06:58.155Z,24.38
2022-07-28T03:10:00.853Z,24.40
2022-07-28T03:13:05.364Z,24.41
2022-07-28T03:16:08.096Z,24.46
2022-07-28T03:19:11.599Z,24.46
2022-07-28T03:22:14.223Z,24.55
2022-07-28T03:25:23.279Z,24.57
2022-07-28T03:28:27.187Z,24.63
2022-07-28T03:31:31.707Z,24.70
2022-07-28T03:34:34.552Z,24.70
2022-07-28T03:37:41.728Z,24.60
2022-07-28T03:40:46.275Z,24.56
2022-07-28T03:43:50.443Z,24.58
2022-07-28T03:46:52.977Z,24.58
2022-07-28T03:49:55.433Z,24.64
2022-07-28T03:52:59.162Z,24.68
2022-07-28T03:56:03.322Z,24.70
2022-07-28T03:59:06.362Z,24.76
2022-07-28T04:02:09.121Z,24.82
2022-07-28T04:05:13.105Z,24.88
2022-07-28T04:08:15.396Z,24.95
2022-07-28T04:11:18.195Z,25.08
2022-07-28T04:14:20.774Z,25.08
2022-07-28T04:17:23.636Z,25.07
2022-07-28T04:20:27.095Z,25.09
2022-07-28T04:23:30.973Z,25.17
2022-07-28T04:26:33.237Z,25.13
2022-07-28T04:29:35.980Z,25.10
2022-07-28T04:32:38.616Z,25.15
2022-07-28T04:35:41.981Z,25.22
2022-07-28T04:38:44.374Z,25.27
2022-07-28T04:41:47.072Z,25.32
2022-07-28T04:44:49.359Z,25.37
2022-07-28T04:47:53.248Z,25.37
2022-07-28T04:50:55.540Z,25.37
2022-07-28T04:53:58.312Z,25.27
2022-07-28T04:57:00.630Z,25.38
2022-07-28T05:00:13.249Z,25.37
2022-07-28T05:03:15.521Z,25.39
2022-07-28T05:06:18.713Z,25.48
2022-07-28T05:09:21.403Z,25.54
2022-07-28T05:12:24.287Z,25.64
2022-07-28T05:15:26.661Z,25.70
2022-07-28T05:18:29.544Z,25.73
2022-07-28T05:21:31.868Z,25.73
2022-07-28T05:24:34.699Z,25.91
2022-07-28T05:27:37.264Z,26.04
2022-07-28T05:30:40.036Z,26.10
2022-07-28T05:33:42.217Z,26.18
2022-07-28T05:36:44.889Z,26.34
2022-07-28T05:39:47.129Z,26.37
2022-07-28T05:42:49.828Z,26.45
2022-07-28T05:45:52.285Z,26.50
2022-07-28T05:48:55.185Z,26.66
2022-07-28T05:51:57.488Z,26.63
2022-07-28T05:55:00.199Z,26.69
2022-07-28T05:58:02.635Z,26.84
2022-07-28T06:01:05.416Z,26.83
2022-07-28T06:04:25.877Z,26.88
2022-07-28T06:07:43.440Z,26.97
2022-07-28T06:10:59.025Z,27.13
2022-07-28T06:14:01.579Z,27.21
2022-07-28T06:17:04.268Z,27.20
2022-07-28T06:20:07.222Z,27.34
2022-07-28T06:23:09.813Z,27.27
2022-07-28T06:26:12.238Z,27.31
2022-07-28T06:29:14.811Z,27.42
2022-07-28T06:32:17.244Z,27.64
2022-07-28T06:35:19.839Z,27.81
2022-07-28T06:38:22.261Z,27.94
2022-07-28T06:41:24.754Z,27.78
2022-07-28T06:44:48.270Z,27.75
2022-07-28T06:47:50.421Z,27.93
2022-07-28T06:50:52.892Z,28.11
2022-07-28T06:53:56.008Z,28.04
2022-07-28T06:56:58.971Z,28.21
2022-07-28T07:00:04.799Z,28.49
2022-07-28T07:03:09.824Z,28.63
2022-07-28T07:06:12.655Z,28.75
2022-07-28T07:09:15.077Z,29.01
2022-07-28T07:12:17.682Z,29.40
2022-07-28T07:15:20.094Z,29.58
2022-07-28T07:18:22.589Z,29.77
2022-07-28T07:21:25.037Z,30.08
2022-07-28T07:24:28.779Z,30.18
2022-07-28T07:27:31.215Z,29.97
2022-07-28T07:30:33.777Z,30.01
2022-07-28T07:33:36.280Z,29.86
2022-07-28T07:36:38.768Z,30.09
2022-07-28T07:39:41.582Z,30.24
2022-07-28T07:42:44.446Z,30.12
2022-07-28T07:45:46.865Z,30.43
2022-07-28T07:48:49.464Z,30.40
2022-07-28T07:51:51.933Z,30.78
2022-07-28T07:54:54.669Z,31.02
2022-07-28T07:57:57.305Z,31.27
2022-07-28T08:00:59.977Z,31.41
2022-07-28T08:04:03.169Z,31.32
2022-07-28T08:07:05.869Z,31.42
2022-07-28T08:10:08.920Z,31.76
2022-07-28T08:13:11.179Z,32.04
2022-07-28T08:16:14.017Z,32.02
2022-07-28T08:19:16.666Z,32.03
2022-07-28T08:22:24.672Z,32.13
2022-07-28T08:25:27.238Z,32.29
2022-07-28T08:28:29.952Z,32.65
2022-07-28T08:31:32.339Z,33.28
2022-07-28T08:34:38.374Z,33.44
2022-07-28T08:37:40.881Z,33.83
2022-07-28T08:40:46.090Z,34.49
2022-07-28T08:43:49.894Z,34.90
2022-07-28T08:46:53.327Z,35.42
2022-07-28T08:49:57.133Z,36.23
2022-07-28T08:53:00.367Z,36.87
2022-07-28T08:56:06.834Z,37.26
2022-07-28T08:59:09.605Z,37.64
2022-07-28T09:02:12.890Z,38.02
2022-07-28T09:05:16.046Z,38.58
2022-07-28T09:08:19.452Z,39.20
2022-07-28T09:11:22.162Z,39.70
2022-07-28T09:14:25.099Z,39.88
2022-07-28T09:17:28.364Z,39.77
2022-07-28T09:20:31.973Z,40.08
2022-07-28T09:24:01.481Z,40.40
2022-07-28T09:27:08.042Z,40.56
2022-07-28T09:30:11.055Z,40.74
2022-07-28T09:33:41.956Z,40.28
2022-07-28T09:36:39.958Z,39.82
2022-07-28T09:39:43.171Z,39.95
2022-07-28T09:42:46.911Z,39.32
2022-07-28T09:46:02.619Z,38.01
2022-07-28T09:49:05.494Z,37.99
2022-07-28T09:52:07.924Z,38.36
2022-07-28T09:55:11.524Z,38.65
2022-07-28T09:58:13.838Z,39.20
2022-07-28T10:01:18.791Z,39.91
2022-07-28T10:04:33.754Z,40.74
2022-07-28T10:07:47.833Z,41.11
2022-07-28T10:11:00.751Z,41.16
2022-07-28T10:14:05.018Z,41.39
2022-07-28T10:17:07.652Z,41.89
2022-07-28T10:20:10.276Z,42.47
2022-07-28T10:23:13.367Z,43.03
2022-07-28T10:26:16.309Z,43.51
2022-07-28T10:29:21.011Z,44.20
2022-07-28T10:32:23.448Z,44.48
2022-07-28T10:35:26.747Z,44.39
2022-07-28T10:38:35.206Z,44.32
2022-07-28T10:41:41.711Z,44.12
2022-07-28T10:44:45.366Z,44.20
2022-07-28T10:47:48.376Z,43.89
2022-07-28T10:50:52.043Z,43.59
2022-07-28T10:54:01.182Z,43.84
2022-07-28T10:57:05.171Z,43.96
2022-07-28T11:00:24.721Z,44.16
2022-07-28T11:03:38.425Z,42.89
2022-07-28T11:06:42.409Z,41.28
2022-07-28T11:09:47.431Z,41.58
2022-07-28T11:12:51.407Z,42.35
2022-07-28T11:15:54.504Z,42.41
2022-07-28T11:19:42.374Z,42.84
2022-07-28T11:22:33.923Z,42.69
2022-07-28T11:25:37.184Z,42.87
2022-07-28T11:28:57.681Z,42.89
2022-07-28T11:32:00.845Z,42.65
2022-07-28T11:35:08.179Z,40.33
2022-07-28T11:38:14.482Z,38.22
2022-07-28T11:41:32.274Z,38.09
2022-07-28T11:44:36.849Z,39.25
2022-07-28T11:47:39.296Z,40.25
2022-07-28T11:50:42.232Z,40.26
2022-07-28T11:53:52.489Z,39.68
2022-07-28T11:56:58.704Z,39.28
2022-07-28T12:00:01.987Z,38.55
2022-07-28T12:03:08.163Z,37.96
2022-07-28T12:06:11.607Z,37.22
2022-07-28T12:09:23.314Z,36.74
2022-07-28T12:12:28.663Z,36.49
2022-07-28T12:15:31.224Z,37.19
2022-07-28T12:18:34.059Z,37.14
2022-07-28T12:21:46.402Z,36.99
2022-07-28T12:24:56.559Z,36.74
2022-07-28T12:28:12.639Z,36.45
2022-07-28T12:31:15.761Z,35.93
2022-07-28T12:34:18.942Z,36.11
2022-07-28T12:37:23.582Z,36.98
2022-07-28T12:40:29.224Z,37.50
2022-07-28T12:43:32.164Z,37.85
2022-07-28T12:46:34.829Z,38.07
2022-07-28T12:49:38.697Z,38.15
2022-07-28T12:52:44.490Z,37.69
2022-07-28T12:55:47.341Z,37.44
2022-07-28T12:58:56.504Z,37.24
2022-07-28T13:02:00.477Z,36.73
2022-07-28T13:05:03.087Z,37.14
2022-07-28T13:08:06.329Z,37.83
2022-07-28T13:11:17.393Z,38.42
2022-07-28T13:14:41.399Z,38.87
2022-07-28T13:17:50.676Z,39.21
2022-07-28T13:20:54.158Z,38.71
2022-07-28T13:23:56.406Z,37.52
2022-07-28T13:26:59.642Z,36.66
2022-07-28T13:30:02.328Z,36.16
2022-07-28T13:33:09.348Z,36.33
2022-07-28T13:36:14.855Z,36.54
2022-07-28T13:39:17.603Z,37.04
2022-07-28T13:42:19.851Z,37.31
2022-07-28T13:45:23.817Z,37.11
2022-07-28T13:48:26.268Z,37.19
2022-07-28T13:51:30.461Z,37.44
2022-07-28T13:54:37.296Z,37.75
2022-07-28T13:57:43.207Z,37.52
2022-07-28T14:00:45.685Z,37.25
2022-07-28T14:03:58.006Z,37.09
2022-07-28T14:07:00.630Z,36.89
2022-07-28T14:10:03.839Z,36.56
2022-07-28T14:13:09.429Z,36.25
2022-07-28T14:16:14.370Z,36.03
2022-07-28T14:19:23.426Z,35.59
2022-07-28T14:22:40.465Z,35.24
2022-07-28T14:25:49.269Z,35.35
2022-07-28T14:28:53.075Z,35.33
2022-07-28T14:31:55.916Z,35.08
2022-07-28T14:34:58.927Z,34.95
2022-07-28T14:38:49.757Z,34.74
2022-07-28T14:41:25.841Z,34.48
2022-07-28T14:44:28.134Z,34.28
2022-07-28T14:47:44.574Z,34.04
2022-07-28T14:50:48.438Z,33.92
2022-07-28T14:53:52.133Z,33.60
2022-07-28T14:56:54.860Z,33.42
2022-07-28T14:59:57.606Z,33.34
2022-07-28T15:02:59.950Z,33.26
2022-07-28T15:06:05.265Z,33.27
2022-07-28T15:09:09.463Z,33.45
2022-07-28T15:12:12.271Z,33.53
2022-07-28T15:15:15.864Z,33.58
2022-07-28T15:18:18.636Z,33.63
2022-07-28T15:21:21.052Z,33.65
2022-07-28T15:24:27.191Z,33.69
2022-07-28T15:27:33.143Z,33.74
2022-07-28T15:30:36.401Z,33.58
2022-07-28T15:33:57.468Z,33.44
2022-07-28T15:37:01.093Z,33.38
2022-07-28T15:40:03.730Z,33.33
2022-07-28T15:43:06.510Z,33.33
2022-07-28T15:46:11.005Z,33.36
2022-07-28T15:49:14.181Z,33.18
2022-07-28T15:52:16.532Z,33.12
2022-07-28T15:55:20.501Z,33.15
2022-07-28T15:58:22.702Z,33.07
2022-07-28T16:01:29.919Z,32.98
2022-07-28T16:04:33.702Z,32.83
2022-07-28T16:07:36.218Z,32.73
2022-07-28T16:10:38.754Z,32.65
2022-07-28T16:13:41.666Z,32.56
2022-07-28T16:16:44.630Z,32.45
2022-07-28T16:19:49.667Z,32.39
2022-07-28T16:22:52.645Z,32.24
2022-07-28T16:25:55.354Z,32.12
2022-07-28T16:28:57.904Z,32.04
2022-07-28T16:32:00.316Z,31.95
2022-07-28T16:35:03.255Z,31.83
2022-07-28T16:38:06.098Z,31.81
2022-07-28T16:41:10.408Z,31.76
2022-07-28T16:44:14.716Z,31.69
2022-07-28T16:47:18.095Z,31.66
2022-07-28T16:50:22.727Z,31.65
2022-07-28T16:53:25.677Z,31.62
2022-07-28T16:56:28.106Z,31.54
2022-07-28T16:59:37.958Z,31.45
2022-07-28T17:02:51.614Z,31.39
2022-07-28T17:05:54.283Z,31.33
2022-07-28T17:08:56.865Z,31.28
2022-07-28T17:11:59.346Z,31.24
2022-07-28T17:15:01.950Z,31.18
2022-07-28T17:18:05.834Z,31.12
2022-07-28T17:21:08.269Z,31.06
2022-07-28T17:24:12.233Z,30.98
2022-07-28T17:30:37.715Z,30.88
2022-07-28T17:33:40.212Z,30.80
2022-07-28T17:36:45.352Z,30.74
2022-07-28T17:39:47.737Z,30.68
2022-07-28T17:42:51.780Z,30.62
2022-07-28T17:45:57.326Z,30.59
2022-07-28T17:48:59.900Z,30.53
2022-07-28T17:52:03.628Z,30.46
2022-07-28T17:55:24.973Z,30.39
2022-07-28T17:58:32.225Z,30.34
2022-07-28T18:01:35.209Z,30.27
2022-07-28T18:04:38.269Z,30.21
2022-07-28T18:07:50.951Z,30.15
2022-07-28T18:10:55.011Z,30.09
2022-07-28T18:14:04.295Z,30.02
2022-07-28T18:17:07.889Z,29.97
2022-07-28T18:20:10.483Z,29.91
2022-07-28T18:23:13.836Z,29.88
2022-07-28T18:26:16.206Z,29.84
2022-07-28T18:29:20.391Z,29.78
2022-07-28T18:32:23.486Z,29.75
2022-07-28T18:35:26.307Z,29.68
2022-07-28T18:38:28.798Z,29.62
2022-07-28T18:41:34.553Z,29.56
2022-07-28T18:44:49.115Z,29.52
2022-07-28T18:47:53.213Z,29.50
2022-07-28T18:50:55.493Z,29.46
2022-07-28T18:53:58.177Z,29.43
2022-07-28T18:57:00.397Z,29.38
2022-07-28T19:00:04.499Z,29.41
2022-07-28T19:03:06.862Z,29.38
2022-07-28T19:06:10.426Z,29.24
2022-07-28T19:09:12.673Z,29.17
2022-07-28T19:12:15.401Z,29.12
2022-07-28T19:15:17.717Z,29.08
2022-07-28T19:18:20.632Z,29.03
2022-07-28T19:21:24.323Z,29.06
2022-07-28T19:24:27.128Z,28.93
2022-07-28T19:27:30.796Z,28.87
2022-07-28T19:30:33.821Z,28.83
2022-07-28T19:33:36.704Z,28.77
2022-07-28T19:36:41.677Z,28.73
2022-07-28T19:39:45.988Z,28.70
2022-07-28T19:42:48.982Z,28.64
2022-07-28T19:45:57.347Z,28.59
2022-07-28T19:49:00.245Z,28.54
2022-07-28T19:52:02.531Z,28.50
2022-07-28T19:55:06.246Z,28.47
2022-07-28T19:58:08.469Z,28.45
2022-07-28T20:01:11.213Z,28.39
2022-07-28T20:04:15.830Z,28.37
2022-07-28T20:07:18.854Z,28.31
2022-07-28T20:10:22.184Z,28.23
2022-07-28T20:13:24.863Z,28.20
2022-07-28T20:16:27.929Z,28.15
2022-07-28T20:19:30.437Z,28.08
2022-07-28T20:22:33.064Z,28.04
2022-07-28T20:25:35.547Z,28.02
2022-07-28T20:28:38.189Z,27.95
2022-07-28T20:31:40.611Z,27.87
2022-07-28T20:34:43.641Z,27.79
2022-07-28T20:37:46.307Z,27.74
2022-07-28T20:40:49.241Z,27.68
2022-07-28T20:44:11.360Z,27.61
2022-07-28T20:47:14.352Z,27.56
2022-07-28T20:50:17.007Z,27.51
2022-07-28T20:53:19.568Z,27.49
2022-07-28T20:56:22.061Z,27.48
2022-07-28T20:59:27.726Z,27.44
2022-07-28T21:02:30.952Z,27.43
2022-07-28T21:05:35.426Z,27.38
2022-07-28T21:08:38.816Z,27.35
2022-07-28T21:11:42.075Z,27.31
2022-07-28T21:14:44.496Z,27.27
2022-07-28T21:17:47.893Z,27.25
2022-07-28T21:20:50.526Z,27.23
2022-07-28T21:23:53.047Z,27.22
2022-07-28T21:26:55.576Z,27.18
2022-07-28T21:32:59.735Z,27.14
2022-07-28T21:36:03.286Z,27.12
2022-07-28T21:39:06.346Z,27.13
2022-07-28T21:42:09.553Z,27.12
2022-07-28T21:45:12.138Z,27.08
2022-07-28T21:48:16.879Z,27.07
2022-07-28T21:51:21.734Z,27.07
2022-07-28T21:54:24.251Z,27.06
2022-07-28T21:57:26.709Z,27.03
2022-07-28T22:00:29.394Z,27.00
2022-07-28T22:03:32.096Z,26.97
2022-07-28T22:06:34.351Z,26.95
2022-07-28T22:09:38.086Z,26.96
2022-07-28T22:12:40.517Z,26.99
2022-07-28T22:15:43.155Z,27.03
2022-07-28T22:18:45.468Z,27.00
2022-07-28T22:21:48.198Z,26.88
2022-07-28T22:24:50.452Z,26.87
2022-07-28T22:27:53.204Z,26.96
2022-07-28T22:30:55.398Z,26.92
2022-07-28T22:33:58.113Z,26.86
2022-07-28T22:37:11.138Z,26.72
2022-07-28T22:40:18.860Z,26.67
2022-07-28T22:43:21.039Z,26.63
2022-07-28T22:46:23.773Z,26.70
2022-07-28T22:49:26.767Z,26.67
2022-07-28T22:52:29.954Z,26.64
2022-07-28T22:58:53.425Z,26.50
2022-07-28T23:01:55.692Z,26.61
2022-07-28T23:04:58.483Z,26.62
2022-07-28T23:08:00.773Z,26.61
2022-07-28T23:11:04.882Z,26.56
2022-07-28T23:14:07.216Z,26.41
2022-07-28T23:17:10.103Z,26.49
2022-07-28T23:20:12.609Z,26.40
2022-07-28T23:23:18.419Z,26.39
2022-07-28T23:26:20.828Z,26.40
2022-07-28T23:29:23.657Z,26.34
2022-07-28T23:32:25.984Z,26.22
2022-07-28T23:35:28.944Z,26.23
2022-07-28T23:38:31.232Z,26.16
2022-07-28T23:41:34.263Z,26.16
2022-07-28T23:44:36.871Z,26.24
2022-07-28T23:47:39.691Z,26.12
2022-07-28T23:50:42.230Z,26.14
2022-07-28T23:53:45.027Z,26.12
2022-07-28T23:56:50.843Z,26.06
2022-07-28T23:59:53.689Z,25.99
